createdAt,value
2022-12-26T00:01:52.152Z,99039.03
2022-12-26T00:04:49.812Z,99041.84
2022-12-26T00:07:10.147Z,99046.84
2022-12-26T00:09:38.760Z,99042.22
2022-12-26T00:12:07.474Z,99036.44
2022-12-26T00:14:37.402Z,99040.66
2022-12-26T00:17:06.027Z,99040.44
2022-12-26T00:19:34.666Z,99043.25
2022-12-26T00:22:03.264Z,99037.22
2022-12-26T00:24:31.864Z,99036.22
2022-12-26T00:27:00.542Z,99047.81
2022-12-26T00:29:29.184Z,99042.19
2022-12-26T00:31:59.253Z,99045.41
2022-12-26T00:34:27.914Z,99055.25
2022-12-26T00:36:56.599Z,99045.84
2022-12-26T00:39:25.171Z,99051.44
2022-12-26T00:41:53.777Z,99062.69
2022-12-26T00:44:22.336Z,99060.28
2022-12-26T00:46:51.010Z,99054.41
2022-12-26T00:49:21.000Z,99058.63
2022-12-26T00:51:49.584Z,99068.41
2022-12-26T00:54:18.182Z,99053.97
2022-12-26T00:56:46.918Z,99044.56
2022-12-26T00:59:15.569Z,99045.41
2022-12-26T01:01:44.439Z,99043.56
2022-12-26T01:04:13.188Z,99057.00
2022-12-26T01:06:43.121Z,99056.00
2022-12-26T01:09:12.082Z,99049.59
2022-12-26T01:11:42.035Z,99039.16
2022-12-26T01:14:12.995Z,99043.16
2022-12-26T01:16:42.856Z,99044.72
2022-12-26T01:19:12.895Z,99043.34
2022-12-26T01:21:43.552Z,99045.59
2022-12-26T01:24:13.677Z,99043.75
2022-12-26T01:26:42.310Z,99048.19
2022-12-26T01:29:10.977Z,99050.97
2022-12-26T01:31:39.615Z,99040.53
2022-12-26T01:34:08.158Z,99051.34
2022-12-26T01:36:36.714Z,99054.94
2022-12-26T01:39:06.723Z,99054.31
2022-12-26T01:41:35.385Z,99062.97
2022-12-26T01:44:06.109Z,99060.94
2022-12-26T01:46:38.454Z,99063.16
2022-12-26T01:49:10.574Z,99057.31
2022-12-26T01:51:42.172Z,99061.91
2022-12-26T01:54:38.096Z,99060.06
2022-12-26T01:57:05.922Z,99064.06
2022-12-26T01:59:37.010Z,99071.25
2022-12-26T02:02:05.850Z,99061.22
2022-12-26T02:04:54.321Z,99058.81
2022-12-26T02:07:23.314Z,99064.81
2022-12-26T02:09:53.341Z,99057.44
2022-12-26T02:12:35.988Z,99066.06
2022-12-26T02:15:10.346Z,99056.88
2022-12-26T02:17:39.156Z,99045.66
2022-12-26T02:20:18.055Z,99049.84
2022-12-26T02:23:37.131Z,99053.81
2022-12-26T02:26:39.089Z,99053.03
2022-12-26T02:29:35.877Z,99043.19
2022-12-26T02:32:10.863Z,99047.41
2022-12-26T02:34:46.809Z,99046.00
2022-12-26T02:37:25.026Z,99053.06
2022-12-26T02:40:05.557Z,99062.03
2022-12-26T02:42:40.682Z,99078.47
2022-12-26T02:45:33.959Z,99073.63
2022-12-26T02:48:08.480Z,99076.41
2022-12-26T02:51:04.978Z,99066.19
2022-12-26T02:53:58.691Z,99064.81
2022-12-26T02:56:57.261Z,99071.19
2022-12-26T02:59:56.121Z,99071.22
2022-12-26T03:02:48.939Z,99073.56
2022-12-26T03:05:40.625Z,99069.63
2022-12-26T03:08:29.609Z,99071.19
2022-12-26T03:11:16.531Z,99061.44
2022-12-26T03:13:46.271Z,99073.88
2022-12-26T03:16:33.334Z,99071.66
2022-12-26T03:19:04.800Z,99060.06
2022-12-26T03:21:37.301Z,99068.06
2022-12-26T03:24:06.654Z,99061.44
2022-12-26T03:26:40.459Z,99060.38
2022-12-26T03:29:28.915Z,99061.19
2022-12-26T03:31:57.770Z,99059.22
2022-12-26T03:34:28.232Z,99046.56
2022-12-26T03:37:47.803Z,99044.78
2022-12-26T03:40:43.400Z,99041.53
2022-12-26T03:43:38.886Z,99051.59
2022-12-26T03:46:31.505Z,99047.22
2022-12-26T03:49:25.212Z,99048.84
2022-12-26T03:52:17.238Z,99047.69
2022-12-26T03:55:11.661Z,99045.25
2022-12-26T03:58:00.107Z,99041.25
2022-12-26T04:00:47.925Z,99039.47
2022-12-26T04:03:35.940Z,99043.66
2022-12-26T04:06:23.790Z,99048.47
2022-12-26T04:09:13.564Z,99046.09
2022-12-26T04:12:03.173Z,99045.28
2022-12-26T04:14:56.985Z,99050.88
2022-12-26T04:17:47.474Z,99061.50
2022-12-26T04:20:21.763Z,99067.88
2022-12-26T04:23:10.787Z,99069.69
2022-12-26T04:26:02.699Z,99064.13
2022-12-26T04:28:50.406Z,99063.31
2022-12-26T04:31:44.076Z,99065.09
2022-12-26T04:34:34.784Z,99066.91
2022-12-26T04:37:22.380Z,99070.91
2022-12-26T04:40:10.483Z,99062.13
2022-12-26T04:42:57.630Z,99065.31
2022-12-26T04:45:27.925Z,99072.94
2022-12-26T04:48:13.927Z,99067.94
2022-12-26T04:50:51.206Z,99062.72
2022-12-26T04:53:19.854Z,99060.91
2022-12-26T04:55:48.664Z,99047.53
2022-12-26T04:58:17.771Z,99051.75
2022-12-26T05:00:47.735Z,99065.22
2022-12-26T05:03:33.828Z,99065.03
2022-12-26T05:06:19.918Z,99063.00
2022-12-26T05:09:06.596Z,99065.41
2022-12-26T05:11:35.805Z,99069.41
2022-12-26T05:14:04.435Z,99064.19
2022-12-26T05:16:51.941Z,99067.19
2022-12-26T05:19:37.982Z,99066.41
2022-12-26T05:22:24.625Z,99057.16
2022-12-26T05:25:07.261Z,99062.97
2022-12-26T05:27:55.687Z,99057.16
2022-12-26T05:30:24.615Z,99047.31
2022-12-26T05:33:12.159Z,99046.09
2022-12-26T05:35:41.102Z,99054.09
2022-12-26T05:38:11.217Z,99049.72
2022-12-26T05:40:39.808Z,99045.31
2022-12-26T05:43:08.358Z,99050.34
2022-12-26T05:45:36.968Z,99058.16
2022-12-26T05:48:07.440Z,99061.38
2022-12-26T05:50:36.022Z,99052.94
2022-12-26T05:53:04.987Z,99058.97
2022-12-26T05:55:33.677Z,99054.97
2022-12-26T05:58:02.664Z,99051.41
2022-12-26T06:00:31.649Z,99060.63
2022-12-26T06:03:02.092Z,99057.44
2022-12-26T06:05:32.265Z,99070.84
2022-12-26T06:08:00.833Z,99071.25
2022-12-26T06:10:29.928Z,99068.25
2022-12-26T06:12:58.561Z,99065.84
2022-12-26T06:15:27.230Z,99060.88
2022-12-26T06:17:56.421Z,99061.25
2022-12-26T06:20:24.999Z,99057.47
2022-12-26T06:22:54.914Z,99060.28
2022-12-26T06:25:23.538Z,99068.09
2022-12-26T06:27:52.167Z,99068.88
2022-12-26T06:30:21.723Z,99064.28
2022-12-26T06:32:50.401Z,99068.28
2022-12-26T06:35:19.045Z,99063.09
2022-12-26T06:37:47.677Z,99073.50
2022-12-26T06:40:17.723Z,99068.69
2022-12-26T06:42:46.284Z,99067.34
2022-12-26T06:45:15.048Z,99070.69
2022-12-26T06:47:43.667Z,99061.75
2022-12-26T06:50:12.312Z,99066.38
2022-12-26T06:52:40.900Z,99069.56
2022-12-26T06:55:09.951Z,99071.13
2022-12-26T06:57:39.877Z,99061.91
2022-12-26T07:00:10.447Z,99063.09
2022-12-26T07:02:39.176Z,99057.88
2022-12-26T07:05:08.526Z,99061.50
2022-12-26T07:07:37.162Z,99065.69
2022-12-26T07:10:06.403Z,99065.09
2022-12-26T07:12:35.566Z,99066.72
2022-12-26T07:15:09.894Z,99070.91
2022-12-26T07:17:38.963Z,99077.13
2022-12-26T07:20:09.250Z,99078.13
2022-12-26T07:22:37.861Z,99071.09
2022-12-26T07:25:07.249Z,99070.69
2022-12-26T07:27:35.875Z,99070.69
2022-12-26T07:30:06.890Z,99078.72
2022-12-26T07:32:35.507Z,99079.94
2022-12-26T07:35:04.423Z,99067.91
2022-12-26T07:37:33.066Z,99068.09
2022-12-26T07:40:01.774Z,99063.09
2022-12-26T07:42:30.350Z,99066.31
2022-12-26T07:44:58.969Z,99073.13
2022-12-26T07:47:28.922Z,99068.53
2022-12-26T07:49:57.513Z,99084.56
2022-12-26T07:52:26.121Z,99074.69
2022-12-26T07:54:54.684Z,99086.16
2022-12-26T07:57:47.567Z,99079.53
2022-12-26T08:00:12.925Z,99088.78
2022-12-26T08:02:43.171Z,99091.19
2022-12-26T08:05:11.963Z,99090.41
2022-12-26T08:07:40.574Z,99085.59
2022-12-26T08:10:09.850Z,99090.81
2022-12-26T08:12:38.489Z,99086.81
2022-12-26T08:15:08.206Z,99085.38
2022-12-26T08:17:38.324Z,99089.56
2022-12-26T08:20:09.341Z,99091.59
2022-12-26T08:22:37.946Z,99089.97
2022-12-26T08:25:07.835Z,99092.38
2022-12-26T08:27:36.472Z,99092.38
2022-12-26T08:30:05.910Z,99094.34
2022-12-26T08:32:34.938Z,99100.75
2022-12-26T08:35:05.524Z,99101.59
2022-12-26T08:37:35.444Z,99113.81
2022-12-26T08:40:04.424Z,99119.25
2022-12-26T08:42:34.637Z,99118.84
2022-12-26T08:45:09.069Z,99122.28
2022-12-26T08:47:37.667Z,99127.50
2022-12-26T08:50:06.895Z,99129.91
2022-12-26T08:52:37.024Z,99130.88
2022-12-26T08:55:06.373Z,99133.72
2022-12-26T08:57:35.061Z,99145.94
2022-12-26T09:00:04.459Z,99149.53
2022-12-26T09:02:33.263Z,99147.19
2022-12-26T09:05:01.941Z,99162.00
2022-12-26T09:07:30.578Z,99172.63
2022-12-26T09:10:00.509Z,99178.41
2022-12-26T09:12:29.149Z,99179.44
2022-12-26T09:14:57.756Z,99184.63
2022-12-26T09:17:28.043Z,99183.06
2022-12-26T09:19:56.782Z,99196.31
2022-12-26T09:22:43.129Z,99193.09
2022-12-26T09:25:13.046Z,99205.56
2022-12-26T09:27:41.677Z,99214.78
2022-12-26T09:30:10.655Z,99209.78
2022-12-26T09:32:40.229Z,99216.59
2022-12-26T09:35:10.413Z,99220.81
2022-12-26T09:37:39.062Z,99221.59
2022-12-26T09:40:20.462Z,99207.13
2022-12-26T09:42:59.115Z,99212.34
2022-12-26T09:45:34.113Z,99228.41
2022-12-26T09:48:07.187Z,99226.03
2022-12-26T09:50:42.978Z,99229.28
2022-12-26T09:53:14.841Z,99231.72
2022-12-26T09:55:48.453Z,99225.63
2022-12-26T09:58:23.625Z,99229.84
2022-12-26T10:00:54.363Z,99239.69
2022-12-26T10:03:24.605Z,99232.47
2022-12-26T10:06:08.460Z,99235.50
2022-12-26T10:08:47.839Z,99237.28
2022-12-26T10:11:23.275Z,99239.88
2022-12-26T10:13:56.092Z,99249.28
2022-12-26T10:16:38.113Z,99275.34
2022-12-26T10:19:14.871Z,99277.59
2022-12-26T10:21:50.574Z,99272.81
2022-12-26T10:24:21.727Z,99267.44
2022-12-26T10:26:52.852Z,99284.44
2022-12-26T10:29:24.754Z,99293.66
2022-12-26T10:31:57.141Z,99286.63
2022-12-26T10:34:28.446Z,99291.84
2022-12-26T10:37:00.629Z,99282.09
2022-12-26T10:39:33.223Z,99289.09
2022-12-26T10:42:10.246Z,99281.09
2022-12-26T10:44:44.025Z,99282.09
2022-12-26T10:47:23.391Z,99287.91
2022-12-26T10:49:52.026Z,99303.16
2022-12-26T10:52:25.545Z,99295.34
2022-12-26T10:55:29.540Z,99306.59
2022-12-26T10:57:47.807Z,99297.59
2022-12-26T11:00:20.250Z,99298.78
2022-12-26T11:03:03.120Z,99301.06
2022-12-26T11:05:57.467Z,99286.44
2022-12-26T11:08:25.146Z,99292.88
2022-12-26T11:11:03.744Z,99298.72
2022-12-26T11:13:36.945Z,99287.44
2022-12-26T11:16:06.410Z,99303.75
2022-12-26T11:18:38.258Z,99295.91
2022-12-26T11:21:15.358Z,99281.09
2022-12-26T11:23:44.527Z,99256.19
2022-12-26T11:26:22.182Z,99263.81
2022-12-26T11:29:07.305Z,99255.19
2022-12-26T11:31:36.092Z,99230.13
2022-12-26T11:34:09.188Z,99227.31
2022-12-26T11:36:40.405Z,99225.50
2022-12-26T11:39:24.508Z,99241.94
2022-12-26T11:41:53.686Z,99260.22
2022-12-26T11:44:26.816Z,99280.53
2022-12-26T11:46:58.422Z,99283.34
2022-12-26T11:49:31.263Z,99273.66
2022-12-26T11:52:01.765Z,99275.88
2022-12-26T11:54:36.224Z,99274.50
2022-12-26T11:57:17.999Z,99262.47
2022-12-26T11:59:49.006Z,99264.47
2022-12-26T12:02:24.031Z,99223.91
2022-12-26T12:04:54.902Z,99213.84
2022-12-26T12:07:37.497Z,99259.66
2022-12-26T12:10:22.733Z,99223.69
2022-12-26T12:12:56.062Z,99217.88
2022-12-26T12:15:30.105Z,99225.34
2022-12-26T12:18:03.550Z,99248.44
2022-12-26T12:20:37.375Z,99249.84
2022-12-26T12:23:25.105Z,99264.13
2022-12-26T12:26:03.145Z,99271.38
2022-12-26T12:29:08.240Z,99272.94
2022-12-26T12:31:47.035Z,99259.72
2022-12-26T12:34:23.218Z,99253.91
2022-12-26T12:37:01.748Z,99239.22
2022-12-26T12:39:39.676Z,99248.28
2022-12-26T12:42:17.334Z,99255.91
2022-12-26T12:44:57.073Z,99244.44
2022-12-26T12:47:32.306Z,99242.44
2022-12-26T12:50:07.172Z,99248.28
2022-12-26T12:52:42.926Z,99248.88
2022-12-26T12:55:24.159Z,99250.50
2022-12-26T12:57:55.732Z,99252.91
2022-12-26T13:00:26.320Z,99254.50
2022-12-26T13:02:59.917Z,99247.69
2022-12-26T13:05:38.346Z,99255.13
2022-12-26T13:08:09.293Z,99241.47
2022-12-26T13:10:42.886Z,99248.09
2022-12-26T13:13:29.764Z,99255.34
2022-12-26T13:16:01.567Z,99244.69
2022-12-26T13:18:35.974Z,99240.25
2022-12-26T13:21:07.012Z,99243.28
2022-12-26T13:23:57.137Z,99240.06
2022-12-26T13:26:28.620Z,99248.50
2022-12-26T13:29:01.691Z,99241.25
2022-12-26T13:31:33.805Z,99228.41
2022-12-26T13:34:04.996Z,99205.50
2022-12-26T13:36:43.147Z,99211.34
2022-12-26T13:39:32.307Z,99208.72
2022-12-26T13:42:21.810Z,99202.28
2022-12-26T13:44:53.644Z,99207.50
2022-12-26T13:47:34.568Z,99211.72
2022-12-26T13:50:40.457Z,99215.72
2022-12-26T13:53:28.489Z,99232.22
2022-12-26T13:55:59.579Z,99221.56
2022-12-26T13:58:39.367Z,99230.00
2022-12-26T14:01:21.000Z,99211.13
2022-12-26T14:03:59.287Z,99221.19
2022-12-26T14:06:59.781Z,99234.25
2022-12-26T14:09:46.642Z,99231.81
2022-12-26T14:12:43.514Z,99215.94
2022-12-26T14:15:24.421Z,99205.09
2022-12-26T14:18:01.823Z,99215.16
2022-12-26T14:20:41.091Z,99205.47
2022-12-26T14:23:33.018Z,99211.31
2022-12-26T14:26:07.297Z,99220.13
2022-12-26T14:28:48.582Z,99227.19
2022-12-26T14:31:22.833Z,99220.34
2022-12-26T14:33:56.565Z,99214.09
2022-12-26T14:36:35.114Z,99208.69
2022-12-26T14:39:14.065Z,99197.88
2022-12-26T14:42:46.919Z,99201.66
2022-12-26T14:45:42.475Z,99207.69
2022-12-26T14:48:53.921Z,99221.56
2022-12-26T14:51:49.457Z,99217.75
2022-12-26T14:54:37.269Z,99210.50
2022-12-26T14:57:37.098Z,99207.69
2022-12-26T15:00:34.037Z,99195.03
2022-12-26T15:03:49.551Z,99193.41
2022-12-26T15:06:41.930Z,99215.31
2022-12-26T15:09:23.749Z,99206.06
2022-12-26T15:12:05.905Z,99203.88
2022-12-26T15:14:58.734Z,99200.84
2022-12-26T15:17:31.025Z,99196.22
2022-12-26T15:20:28.441Z,99182.78
2022-12-26T15:23:20.755Z,99182.16
2022-12-26T15:26:07.141Z,99176.16
2022-12-26T15:28:51.285Z,99187.78
2022-12-26T15:31:30.898Z,99202.66
2022-12-26T15:34:01.740Z,99194.22
2022-12-26T15:36:41.347Z,99203.66
2022-12-26T15:39:22.003Z,99201.84
2022-12-26T15:41:57.372Z,99203.22
2022-12-26T15:44:30.216Z,99216.69
2022-12-26T15:47:15.256Z,99217.09
2022-12-26T15:49:57.676Z,99217.50
2022-12-26T15:52:37.055Z,99209.66
2022-12-26T15:55:31.831Z,99210.69
2022-12-26T15:58:04.066Z,99193.63
2022-12-26T16:00:34.542Z,99208.06
2022-12-26T16:03:15.397Z,99218.09
2022-12-26T16:05:56.162Z,99202.03
2022-12-26T16:08:53.585Z,99207.66
2022-12-26T16:11:25.152Z,99205.84
2022-12-26T16:13:56.987Z,99204.25
2022-12-26T16:16:28.398Z,99214.69
2022-12-26T16:18:57.247Z,99214.25
2022-12-26T16:21:46.301Z,99206.63
2022-12-26T16:24:18.275Z,99211.25
2022-12-26T16:26:47.594Z,99210.06
2022-12-26T16:29:19.625Z,99201.81
2022-12-26T16:31:48.684Z,99208.63
2022-12-26T16:34:19.326Z,99217.06
2022-12-26T16:36:49.104Z,99218.84
2022-12-26T16:39:22.820Z,99224.69
2022-12-26T16:42:00.541Z,99227.50
2022-12-26T16:44:32.882Z,99226.28
2022-12-26T16:47:02.863Z,99222.84
2022-12-26T16:49:32.946Z,99221.06
2022-12-26T16:52:02.784Z,99223.84
2022-12-26T16:54:40.256Z,99234.69
2022-12-26T16:57:12.859Z,99232.25
2022-12-26T16:59:53.175Z,99244.09
2022-12-26T17:02:25.226Z,99229.81
2022-12-26T17:04:58.734Z,99236.47
2022-12-26T17:07:28.081Z,99232.44
2022-12-26T17:10:00.703Z,99224.38
2022-12-26T17:12:32.920Z,99218.75
2022-12-26T17:15:02.530Z,99232.19
2022-12-26T17:17:34.324Z,99222.97
2022-12-26T17:20:29.777Z,99222.78
2022-12-26T17:22:58.702Z,99236.81
2022-12-26T17:25:30.399Z,99245.63
2022-12-26T17:28:24.216Z,99258.06
2022-12-26T17:30:54.340Z,99249.22
2022-12-26T17:33:24.799Z,99256.69
2022-12-26T17:38:48.258Z,99261.28
2022-12-26T17:41:18.764Z,99250.25
2022-12-26T17:43:48.084Z,99250.25
2022-12-26T17:46:18.240Z,99238.59
2022-12-26T17:48:46.900Z,99246.03
2022-12-26T17:51:17.975Z,99243.81
2022-12-26T17:53:49.560Z,99247.84
2022-12-26T17:56:22.639Z,99266.69
2022-12-26T17:58:51.754Z,99263.88
2022-12-26T18:01:22.197Z,99279.34
2022-12-26T18:03:52.134Z,99288.16
2022-12-26T18:06:21.783Z,99295.78
2022-12-26T18:08:50.687Z,99306.44
2022-12-26T18:11:20.765Z,99311.84
2022-12-26T18:13:49.406Z,99311.44
2022-12-26T18:16:24.850Z,99323.28
2022-12-26T18:18:53.624Z,99314.41
2022-12-26T18:21:22.476Z,99325.59
2022-12-26T18:23:51.196Z,99319.00
2022-12-26T18:26:24.383Z,99312.00
2022-12-26T18:28:53.914Z,99318.97
2022-12-26T18:31:22.890Z,99332.00
2022-12-26T18:33:51.856Z,99342.44
2022-12-26T18:36:22.293Z,99344.59
2022-12-26T18:38:50.947Z,99361.03
2022-12-26T18:41:21.174Z,99354.63
2022-12-26T18:43:49.954Z,99357.44
2022-12-26T18:46:19.955Z,99343.78
2022-12-26T18:48:48.769Z,99360.38
2022-12-26T18:51:17.929Z,99360.94
2022-12-26T18:53:46.733Z,99352.72
2022-12-26T18:56:18.353Z,99358.09
2022-12-26T18:58:52.566Z,99366.94
2022-12-26T19:01:27.007Z,99392.34
2022-12-26T19:03:56.109Z,99394.75
2022-12-26T19:06:27.351Z,99379.91
2022-12-26T19:08:56.355Z,99382.88
2022-12-26T19:11:25.270Z,99376.03
2022-12-26T19:13:55.443Z,99381.44
2022-12-26T19:16:24.380Z,99387.84
2022-12-26T19:18:53.457Z,99396.28
2022-12-26T19:21:22.326Z,99397.84
2022-12-26T19:23:50.983Z,99407.63
2022-12-26T19:26:20.276Z,99424.63
2022-12-26T19:28:51.957Z,99418.81
2022-12-26T19:31:22.819Z,99433.84
2022-12-26T19:33:51.484Z,99426.03
2022-12-26T19:36:20.143Z,99439.38
2022-12-26T19:38:49.367Z,99433.56
2022-12-26T19:41:18.035Z,99442.81
2022-12-26T19:43:46.656Z,99444.41
2022-12-26T19:46:16.384Z,99442.81
2022-12-26T19:48:46.911Z,99446.59
2022-12-26T19:51:16.536Z,99449.38
2022-12-26T19:53:45.999Z,99460.22
2022-12-26T19:56:16.597Z,99478.28
2022-12-26T19:58:45.922Z,99484.13
2022-12-26T20:01:16.131Z,99496.19
2022-12-26T20:03:47.650Z,99508.38
2022-12-26T20:06:18.478Z,99522.84
2022-12-26T20:08:48.364Z,99519.81
2022-12-26T20:11:18.899Z,99531.47
2022-12-26T20:13:47.791Z,99529.06
2022-12-26T20:16:46.045Z,99528.06
2022-12-26T20:19:08.598Z,99532.84
2022-12-26T20:21:38.349Z,99549.84
2022-12-26T20:24:07.223Z,99558.91
2022-12-26T20:26:35.896Z,99560.13
2022-12-26T20:29:04.538Z,99560.69
2022-12-26T20:31:34.157Z,99565.28
2022-12-26T20:34:03.028Z,99563.22
2022-12-26T20:36:34.163Z,99574.09
2022-12-26T20:39:07.173Z,99568.59
2022-12-26T20:41:36.069Z,99584.59
2022-12-26T20:44:04.875Z,99590.47
2022-12-26T20:46:35.351Z,99601.31
2022-12-26T20:49:05.407Z,99595.13
2022-12-26T20:51:38.128Z,99600.16
2022-12-26T20:54:07.956Z,99604.09
2022-12-26T20:56:36.989Z,99608.22
2022-12-26T20:59:05.751Z,99607.50
2022-12-26T21:01:35.072Z,99611.13
2022-12-26T21:04:04.052Z,99625.50
2022-12-26T21:06:35.817Z,99621.63
2022-12-26T21:09:05.088Z,99616.59
2022-12-26T21:11:36.084Z,99638.41
2022-12-26T21:14:06.808Z,99648.66
2022-12-26T21:16:38.266Z,99648.84
2022-12-26T21:19:12.454Z,99655.13
2022-12-26T21:21:45.918Z,99653.50
2022-12-26T21:24:17.632Z,99656.91
2022-12-26T21:26:47.197Z,99674.94
2022-12-26T21:29:18.607Z,99679.84
2022-12-26T21:31:47.684Z,99667.25
2022-12-26T21:34:17.937Z,99680.75
2022-12-26T21:37:02.316Z,99677.84
2022-12-26T21:39:31.628Z,99680.28
2022-12-26T21:42:00.717Z,99684.16
2022-12-26T21:44:29.496Z,99693.22
2022-12-26T21:46:58.210Z,99695.47
2022-12-26T21:49:26.922Z,99705.41
2022-12-26T21:51:56.874Z,99703.94
2022-12-26T21:54:48.595Z,99707.69
2022-12-26T21:57:18.505Z,99706.53
2022-12-26T21:59:59.802Z,99714.06
2022-12-26T22:02:48.026Z,99727.09
2022-12-26T22:05:17.684Z,99734.88
2022-12-26T22:07:47.906Z,99735.06
2022-12-26T22:10:30.620Z,99745.66
2022-12-26T22:12:59.682Z,99742.88
2022-12-26T22:15:46.024Z,99746.81
2022-12-26T22:18:14.726Z,99756.66
2022-12-26T22:20:44.623Z,99758.69
2022-12-26T22:23:15.054Z,99762.59
2022-12-26T22:25:43.764Z,99768.63
2022-12-26T22:28:12.383Z,99767.03
2022-12-26T22:30:47.549Z,99763.78
2022-12-26T22:33:16.356Z,99770.97
2022-12-26T22:35:45.401Z,99775.50
2022-12-26T22:38:15.694Z,99775.50
2022-12-26T22:40:53.385Z,99774.22
2022-12-26T22:43:22.218Z,99783.03
2022-12-26T22:45:51.173Z,99782.72
2022-12-26T22:48:21.697Z,99784.88
2022-12-26T22:50:53.421Z,99790.38
2022-12-26T22:53:25.106Z,99797.03
2022-12-26T22:55:57.919Z,99792.19
2022-12-26T22:58:27.252Z,99792.00
2022-12-26T23:00:56.234Z,99797.72
2022-12-26T23:03:26.058Z,99795.81
2022-12-26T23:05:55.805Z,99802.31
2022-12-26T23:08:28.140Z,99807.19
2022-12-26T23:10:58.792Z,99810.59
2022-12-26T23:13:28.154Z,99814.16
2022-12-26T23:15:59.988Z,99818.09
2022-12-26T23:18:51.635Z,99825.06
2022-12-26T23:21:41.911Z,99822.81
2022-12-26T23:24:19.513Z,99834.84
2022-12-26T23:26:50.126Z,99833.88
2022-12-26T23:29:38.563Z,99838.94
2022-12-26T23:32:08.159Z,99835.38
2022-12-26T23:34:37.163Z,99851.75
2022-12-26T23:37:05.819Z,99847.41
2022-12-26T23:39:36.515Z,99846.75
2022-12-26T23:42:05.339Z,99849.53
2022-12-26T23:44:33.996Z,99859.59
2022-12-26T23:47:02.728Z,99867.22
2022-12-26T23:49:31.476Z,99880.38
2022-12-26T23:52:00.168Z,99870.97
2022-12-26T23:54:28.841Z,99877.63
2022-12-26T23:56:58.980Z,99884.91
2022-12-26T23:59:27.814Z,99883.00
